createdAt,value
2022-08-28T00:01:01.870Z,12.50
2022-08-28T00:03:35.323Z,16.35
2022-08-28T00:06:06.203Z,14.35
2022-08-28T00:08:36.580Z,12.70
2022-08-28T00:11:07.460Z,12.25
2022-08-28T00:13:38.065Z,11.70
2022-08-28T00:16:09.665Z,10.13
2022-08-28T00:18:44.116Z,12.43
2022-08-28T00:21:17.833Z,14.20
2022-08-28T00:26:38.727Z,19.40
2022-08-28T00:29:07.477Z,18.20
2022-08-28T00:31:40.207Z,19.73
2022-08-28T00:34:13.914Z,24.17
2022-08-28T00:36:45.403Z,23.33
2022-08-28T00:39:15.719Z,21.08
2022-08-28T00:41:52.506Z,25.23
2022-08-28T00:44:30.871Z,23.83
2022-08-28T00:47:03.358Z,18.58
2022-08-28T00:49:41.074Z,24.10
2022-08-28T00:52:11.788Z,22.70
2022-08-28T00:54:59.446Z,21.83
2022-08-28T00:57:35.223Z,20.15
2022-08-28T01:00:12.367Z,23.75
2022-08-28T01:02:44.076Z,24.02
2022-08-28T01:05:19.355Z,25.02
2022-08-28T01:07:50.948Z,20.08
2022-08-28T01:10:25.944Z,22.92
2022-08-28T01:12:57.558Z,26.30
2022-08-28T01:15:32.968Z,27.48
2022-08-28T01:18:08.573Z,26.85
2022-08-28T01:20:50.753Z,29.85
2022-08-28T01:23:42.811Z,25.98
2022-08-28T01:26:13.383Z,26.25
2022-08-28T01:28:44.013Z,24.90
2022-08-28T01:31:17.210Z,24.13
2022-08-28T01:33:49.592Z,24.00
2022-08-28T01:36:21.367Z,26.67
2022-08-28T01:39:09.760Z,20.48
2022-08-28T01:41:42.307Z,22.70
2022-08-28T01:44:12.808Z,21.45
2022-08-28T01:46:44.935Z,23.63
2022-08-28T01:49:15.656Z,24.17
2022-08-28T01:54:19.172Z,21.00
2022-08-28T01:56:49.716Z,17.48
2022-08-28T01:59:20.312Z,22.50
2022-08-28T02:01:51.065Z,19.65
2022-08-28T02:04:21.314Z,16.58
2022-08-28T02:07:02.164Z,24.42
2022-08-28T02:09:35.060Z,18.33
2022-08-28T02:12:07.096Z,20.05
2022-08-28T02:14:38.787Z,18.77
2022-08-28T02:17:09.034Z,18.95
2022-08-28T02:19:39.227Z,17.83
2022-08-28T02:22:09.550Z,14.88
2022-08-28T02:24:42.745Z,20.48
2022-08-28T02:27:13.063Z,18.00
2022-08-28T02:29:44.282Z,21.73
2022-08-28T02:32:14.807Z,19.95
2022-08-28T02:34:45.054Z,17.80
2022-08-28T02:37:15.681Z,19.33
2022-08-28T02:39:48.566Z,17.75
2022-08-28T02:42:19.188Z,19.83
2022-08-28T02:44:49.691Z,16.55
2022-08-28T02:47:20.220Z,16.92
2022-08-28T02:49:50.508Z,23.13
2022-08-28T02:52:22.027Z,17.23
2022-08-28T02:54:54.867Z,15.27
2022-08-28T02:57:25.759Z,14.23
2022-08-28T02:59:56.688Z,17.17
2022-08-28T03:02:26.948Z,15.70
2022-08-28T03:04:57.349Z,15.18
2022-08-28T03:07:28.052Z,12.10
2022-08-28T03:12:31.023Z,16.83
2022-08-28T03:15:01.202Z,13.32
2022-08-28T03:17:31.964Z,16.42
2022-08-28T03:22:44.459Z,15.90
2022-08-28T03:25:17.872Z,24.75
2022-08-28T03:27:48.139Z,14.02
2022-08-28T03:30:19.552Z,19.17
2022-08-28T03:32:49.996Z,12.60
2022-08-28T03:35:21.990Z,17.17
2022-08-28T03:37:52.182Z,16.98
2022-08-28T03:40:25.367Z,21.35
2022-08-28T03:42:55.815Z,12.98
2022-08-28T03:45:26.022Z,13.70
2022-08-28T03:47:57.067Z,20.35
2022-08-28T03:50:28.960Z,19.65
2022-08-28T03:52:59.843Z,18.70
2022-08-28T03:55:32.659Z,16.98
2022-08-28T03:58:04.595Z,18.85
2022-08-28T04:00:36.306Z,18.52
2022-08-28T04:05:37.736Z,16.83
2022-08-28T04:10:41.339Z,13.10
2022-08-28T04:13:11.767Z,15.30
2022-08-28T04:15:42.039Z,16.25
2022-08-28T04:18:13.479Z,16.02
2022-08-28T04:20:46.418Z,14.02
2022-08-28T04:23:16.728Z,18.13
2022-08-28T04:25:49.470Z,15.27
2022-08-28T04:28:19.790Z,13.32
2022-08-28T04:30:49.981Z,15.93
2022-08-28T04:33:20.173Z,13.93
2022-08-28T04:35:50.459Z,14.38
2022-08-28T04:38:21.339Z,14.30
2022-08-28T04:40:54.128Z,12.82
2022-08-28T04:43:24.370Z,14.95
2022-08-28T04:45:56.396Z,16.00
2022-08-28T04:48:26.742Z,14.32
2022-08-28T04:50:56.918Z,18.38
2022-08-28T04:53:27.488Z,9.98
2022-08-28T04:56:00.810Z,13.10
2022-08-28T04:58:32.347Z,15.10
2022-08-28T05:01:08.399Z,14.52
2022-08-28T05:03:39.252Z,11.32
2022-08-28T05:08:40.343Z,11.27
2022-08-28T05:11:22.105Z,15.55
2022-08-28T05:14:06.537Z,10.77
2022-08-28T05:16:43.093Z,15.10
2022-08-28T05:19:13.441Z,17.08
2022-08-28T05:21:44.195Z,15.07
2022-08-28T05:26:48.201Z,12.38
2022-08-28T05:29:19.593Z,15.43
2022-08-28T05:31:50.055Z,16.48
2022-08-28T05:34:20.869Z,11.30
2022-08-28T05:39:21.334Z,14.27
2022-08-28T05:41:54.143Z,16.42
2022-08-28T05:44:24.376Z,15.65
2022-08-28T05:46:54.736Z,17.25
2022-08-28T05:49:25.253Z,18.38
2022-08-28T05:51:55.479Z,12.95
2022-08-28T05:54:25.772Z,10.05
2022-08-28T05:56:59.034Z,13.10
2022-08-28T05:59:29.194Z,8.95
2022-08-28T06:02:03.623Z,14.85
2022-08-28T06:04:35.677Z,10.05
2022-08-28T06:07:08.216Z,11.68
2022-08-28T06:09:38.498Z,9.18
2022-08-28T06:12:12.729Z,12.80
2022-08-28T06:14:44.976Z,17.38
2022-08-28T06:17:15.173Z,14.90
2022-08-28T06:19:45.425Z,13.68
2022-08-28T06:22:15.612Z,14.75
2022-08-28T06:24:45.727Z,12.98
2022-08-28T06:27:19.086Z,17.88
2022-08-28T06:29:49.288Z,13.48
2022-08-28T06:32:19.493Z,10.93
2022-08-28T06:34:49.702Z,14.77
2022-08-28T06:37:19.929Z,12.48
2022-08-28T06:39:50.081Z,13.82
2022-08-28T06:42:23.144Z,18.15
2022-08-28T06:44:53.294Z,16.13
2022-08-28T06:47:23.745Z,14.70
2022-08-28T06:49:54.598Z,13.75
2022-08-28T06:52:24.816Z,12.32
2022-08-28T06:54:55.838Z,10.80
2022-08-28T06:57:28.910Z,14.98
2022-08-28T06:59:59.444Z,12.90
2022-08-28T07:02:29.762Z,13.35
2022-08-28T07:05:00.588Z,12.27
2022-08-28T07:10:03.051Z,17.60
2022-08-28T07:12:35.827Z,11.23
2022-08-28T07:15:06.724Z,13.43
2022-08-28T07:17:36.986Z,18.05
2022-08-28T07:20:08.319Z,24.52
2022-08-28T07:22:40.929Z,13.02
2022-08-28T07:25:13.008Z,19.05
2022-08-28T07:27:45.802Z,16.63
2022-08-28T07:30:17.176Z,15.23
2022-08-28T07:32:49.344Z,12.75
2022-08-28T07:35:21.050Z,12.57
2022-08-28T07:37:51.877Z,14.48
2022-08-28T07:40:22.479Z,12.20
2022-08-28T07:43:07.754Z,11.95
2022-08-28T07:45:38.131Z,14.85
2022-08-28T07:48:11.634Z,21.08
2022-08-28T07:50:42.052Z,15.88
2022-08-28T07:53:12.635Z,17.60
2022-08-28T07:55:42.796Z,14.30
2022-08-28T07:58:16.354Z,12.55
2022-08-28T08:00:46.566Z,12.80
2022-08-28T08:03:16.982Z,11.18
2022-08-28T08:05:55.955Z,16.33
2022-08-28T08:08:26.831Z,13.15
2022-08-28T08:11:03.107Z,14.10
2022-08-28T08:13:40.736Z,14.43
2022-08-28T08:16:15.053Z,13.02
2022-08-28T08:18:45.946Z,18.13
2022-08-28T08:21:19.258Z,13.82
2022-08-28T08:23:50.684Z,17.02
2022-08-28T08:26:23.790Z,15.60
2022-08-28T08:28:56.922Z,16.23
2022-08-28T08:31:32.500Z,19.38
2022-08-28T08:34:06.663Z,11.50
2022-08-28T08:36:39.205Z,13.50
2022-08-28T08:39:11.013Z,12.45
2022-08-28T08:41:48.382Z,10.77
2022-08-28T08:44:33.508Z,14.43
2022-08-28T08:47:15.140Z,15.23
2022-08-28T08:49:54.062Z,16.48
2022-08-28T08:52:37.569Z,15.63
2022-08-28T08:55:27.209Z,13.43
2022-08-28T08:58:06.662Z,14.25
2022-08-28T09:00:48.877Z,15.70
2022-08-28T09:03:27.713Z,15.13
2022-08-28T09:06:03.415Z,15.10
2022-08-28T09:08:39.963Z,13.38
2022-08-28T09:11:26.280Z,19.00
2022-08-28T09:14:04.889Z,12.45
2022-08-28T09:16:41.732Z,12.20
2022-08-28T09:19:16.169Z,10.63
2022-08-28T09:21:48.817Z,13.38
2022-08-28T09:24:29.235Z,14.63
2022-08-28T09:27:03.620Z,14.02
2022-08-28T09:29:37.769Z,17.85
2022-08-28T09:32:26.523Z,19.13
2022-08-28T09:35:22.065Z,16.90
2022-08-28T09:37:52.245Z,12.60
2022-08-28T09:40:48.337Z,16.58
2022-08-28T09:43:30.244Z,11.60
2022-08-28T09:46:04.654Z,12.95
2022-08-28T09:48:41.255Z,13.15
2022-08-28T09:51:13.877Z,13.45
2022-08-28T09:53:59.761Z,13.02
2022-08-28T09:56:34.102Z,10.98
2022-08-28T09:59:09.455Z,11.90
2022-08-28T10:02:03.252Z,14.90
2022-08-28T10:05:00.252Z,13.30
2022-08-28T10:07:41.958Z,18.92
2022-08-28T10:10:34.847Z,17.30
2022-08-28T10:13:14.721Z,15.23
2022-08-28T10:16:05.007Z,14.75
2022-08-28T10:18:46.730Z,13.68
2022-08-28T10:21:27.356Z,10.77
2022-08-28T10:24:26.078Z,13.18
2022-08-28T10:27:07.600Z,11.23
2022-08-28T10:29:51.644Z,11.43
2022-08-28T10:33:03.901Z,15.50
2022-08-28T10:35:49.569Z,18.30
2022-08-28T10:38:33.825Z,16.98
2022-08-28T10:41:12.230Z,15.38
2022-08-28T10:43:48.859Z,14.95
2022-08-28T10:46:27.225Z,17.65
2022-08-28T10:49:05.100Z,19.48
2022-08-28T10:51:43.599Z,21.15
2022-08-28T10:54:26.409Z,19.00
2022-08-28T10:57:03.242Z,14.95
2022-08-28T10:59:42.175Z,16.30
2022-08-28T11:02:16.632Z,17.98
2022-08-28T11:04:50.401Z,19.13
2022-08-28T11:07:31.345Z,15.77
2022-08-28T11:10:22.749Z,15.82
2022-08-28T11:12:55.023Z,16.20
2022-08-28T11:15:56.286Z,15.48
2022-08-28T11:18:57.820Z,22.63
2022-08-28T11:21:32.248Z,17.25
2022-08-28T11:24:10.052Z,13.82
2022-08-28T11:26:59.450Z,14.10
2022-08-28T11:30:06.616Z,14.13
2022-08-28T11:32:59.415Z,16.42
2022-08-28T11:35:48.514Z,11.43
2022-08-28T11:39:15.214Z,16.77
2022-08-28T11:42:39.436Z,15.63
2022-08-28T11:45:22.624Z,20.40
2022-08-28T11:47:59.481Z,20.80
2022-08-28T11:50:36.707Z,13.60
2022-08-28T11:53:46.682Z,19.58
2022-08-28T11:56:51.734Z,14.90
2022-08-28T11:59:53.335Z,16.05
2022-08-28T12:02:51.179Z,14.18
2022-08-28T12:05:54.901Z,11.05
2022-08-28T12:09:13.444Z,12.48
2022-08-28T12:12:04.366Z,16.83
2022-08-28T12:15:07.827Z,13.98
2022-08-28T12:17:53.888Z,14.60
2022-08-28T12:21:01.796Z,12.88
2022-08-28T12:23:45.117Z,11.10
2022-08-28T12:26:27.407Z,14.18
2022-08-28T12:29:01.453Z,14.00
2022-08-28T12:32:18.839Z,12.60
2022-08-28T12:35:21.085Z,13.02
2022-08-28T12:38:05.056Z,9.35
2022-08-28T12:40:50.646Z,13.02
2022-08-28T12:43:35.808Z,12.65
2022-08-28T12:46:18.895Z,11.75
2022-08-28T12:48:59.561Z,15.02
2022-08-28T12:51:35.812Z,11.13
2022-08-28T12:54:09.054Z,11.90
2022-08-28T12:56:41.883Z,8.52
2022-08-28T12:59:35.296Z,17.48
2022-08-28T13:02:07.036Z,11.95
2022-08-28T13:04:41.084Z,9.88
2022-08-28T13:07:16.977Z,11.77
2022-08-28T13:09:52.074Z,14.32
2022-08-28T13:12:31.978Z,10.98
2022-08-28T13:16:01.633Z,11.88
2022-08-28T13:18:56.636Z,9.57
2022-08-28T13:21:39.276Z,12.23
2022-08-28T13:24:43.703Z,9.35
2022-08-28T13:27:25.471Z,13.25
2022-08-28T13:30:04.659Z,8.93
2022-08-28T13:32:42.006Z,11.45
2022-08-28T13:35:37.473Z,12.50
2022-08-28T13:38:11.950Z,12.00
2022-08-28T13:40:58.799Z,11.10
2022-08-28T13:43:32.827Z,9.80
2022-08-28T13:46:03.032Z,12.63
2022-08-28T13:51:10.726Z,11.05
2022-08-28T13:53:42.850Z,12.75
2022-08-28T13:56:13.472Z,10.80
2022-08-28T13:58:43.871Z,11.95
2022-08-28T14:01:44.920Z,13.25
2022-08-28T14:04:15.332Z,10.02
2022-08-28T14:06:45.710Z,9.57
2022-08-28T14:09:17.684Z,13.57
2022-08-28T14:11:49.786Z,9.60
2022-08-28T14:14:20.703Z,10.00
2022-08-28T14:16:51.683Z,10.27
2022-08-28T14:19:25.878Z,8.32
2022-08-28T14:21:56.350Z,8.88
2022-08-28T14:24:27.201Z,8.23
2022-08-28T14:26:58.673Z,8.75
2022-08-28T14:29:29.094Z,8.70
2022-08-28T14:31:59.881Z,10.38
2022-08-28T14:34:34.866Z,7.30
2022-08-28T14:37:05.104Z,7.57
2022-08-28T14:39:35.904Z,8.27
2022-08-28T14:42:13.083Z,10.23
2022-08-28T14:44:43.566Z,12.98
2022-08-28T14:47:14.716Z,8.63
2022-08-28T14:49:47.704Z,8.00
2022-08-28T14:52:19.503Z,12.23
2022-08-28T14:54:49.751Z,8.80
2022-08-28T14:57:20.054Z,6.90
2022-08-28T14:59:50.285Z,9.77
2022-08-28T15:02:20.448Z,7.20
2022-08-28T15:04:53.304Z,9.43
2022-08-28T15:07:23.940Z,12.30
2022-08-28T15:09:55.096Z,10.50
2022-08-28T15:12:25.847Z,9.13
2022-08-28T15:14:57.239Z,10.43
2022-08-28T15:17:33.952Z,10.82
2022-08-28T15:20:09.174Z,12.38
2022-08-28T15:22:39.436Z,9.48
2022-08-28T15:25:10.863Z,9.63
2022-08-28T15:27:41.569Z,7.72
2022-08-28T15:30:13.867Z,6.70
2022-08-28T15:32:46.240Z,10.85
2022-08-28T15:35:19.292Z,12.00
2022-08-28T15:37:49.518Z,8.00
2022-08-28T15:40:32.434Z,8.32
2022-08-28T15:43:02.720Z,13.07
2022-08-28T15:45:33.028Z,11.48
2022-08-28T15:48:03.266Z,7.93
2022-08-28T15:50:36.396Z,10.57
2022-08-28T15:53:07.913Z,8.07
2022-08-28T15:55:38.133Z,6.55
2022-08-28T15:58:08.832Z,8.05
2022-08-28T16:00:44.951Z,10.10
2022-08-28T16:03:15.696Z,6.97
2022-08-28T16:05:49.701Z,9.38
2022-08-28T16:08:19.958Z,8.98
2022-08-28T16:10:51.726Z,7.30
2022-08-28T16:13:23.832Z,11.57
2022-08-28T16:15:54.133Z,21.27
2022-08-28T16:18:24.300Z,13.77
2022-08-28T16:23:31.725Z,8.23
2022-08-28T16:26:02.676Z,9.43
2022-08-28T16:28:32.950Z,7.82
2022-08-28T16:33:38.479Z,9.25
2022-08-28T16:36:16.903Z,8.27
2022-08-28T16:39:00.469Z,9.23
2022-08-28T16:41:34.975Z,9.48
2022-08-28T16:44:05.900Z,7.90
2022-08-28T16:46:36.348Z,9.65
2022-08-28T16:49:07.002Z,11.18
2022-08-28T16:51:40.508Z,7.28
2022-08-28T16:54:10.794Z,8.57
2022-08-28T16:56:41.124Z,8.32
2022-08-28T16:59:11.406Z,7.50
2022-08-28T17:01:42.635Z,7.75
2022-08-28T17:04:13.692Z,9.95
2022-08-28T17:06:47.628Z,9.55
2022-08-28T17:09:20.953Z,9.43
2022-08-28T17:11:52.157Z,23.75
2022-08-28T17:14:23.123Z,10.60
2022-08-28T17:16:54.931Z,10.15
2022-08-28T17:19:25.376Z,9.57
2022-08-28T17:22:10.642Z,9.85
2022-08-28T17:24:40.925Z,8.68
2022-08-28T17:27:11.324Z,9.95
2022-08-28T17:29:41.610Z,12.57
2022-08-28T17:32:14.670Z,8.70
2022-08-28T17:34:45.141Z,9.90
2022-08-28T17:39:48.283Z,8.88
2022-08-28T17:42:18.586Z,10.50
2022-08-28T17:44:48.789Z,8.18
2022-08-28T17:47:26.278Z,7.07
2022-08-28T17:50:01.782Z,12.43
2022-08-28T17:52:35.439Z,7.50
2022-08-28T17:55:06.725Z,11.55
2022-08-28T17:57:36.910Z,9.23
2022-08-28T18:00:10.957Z,10.27
2022-08-28T18:02:44.422Z,9.70
2022-08-28T18:05:16.777Z,10.38
2022-08-28T18:07:49.839Z,10.63
2022-08-28T18:10:20.000Z,7.38
2022-08-28T18:12:50.530Z,9.00
2022-08-28T18:17:50.952Z,11.07
2022-08-28T18:20:22.329Z,9.63
2022-08-28T18:22:55.520Z,8.52
2022-08-28T18:25:50.795Z,11.25
2022-08-28T18:28:25.181Z,10.52
2022-08-28T18:30:56.027Z,9.93
2022-08-28T18:33:27.434Z,10.35
2022-08-28T18:35:57.690Z,9.40
2022-08-28T18:38:35.086Z,8.88
2022-08-28T18:41:06.060Z,6.85
2022-08-28T18:43:36.733Z,7.13
2022-08-28T18:46:09.364Z,6.93
2022-08-28T18:48:40.761Z,9.80
2022-08-28T18:51:13.563Z,9.98
2022-08-28T18:53:46.514Z,7.22
2022-08-28T18:56:19.242Z,8.77
2022-08-28T18:58:51.912Z,10.63
2022-08-28T19:01:22.220Z,11.15
2022-08-28T19:03:52.601Z,9.70
2022-08-28T19:06:22.936Z,12.93
2022-08-28T19:08:55.914Z,9.95
2022-08-28T19:11:26.117Z,11.20
2022-08-28T19:13:56.271Z,9.57
2022-08-28T19:16:26.475Z,8.70
2022-08-28T19:18:56.663Z,6.65
2022-08-28T19:21:27.538Z,9.18
2022-08-28T19:24:01.100Z,9.05
2022-08-28T19:26:32.065Z,14.32
2022-08-28T19:29:03.128Z,10.18
2022-08-28T19:31:35.919Z,8.63
2022-08-28T19:34:07.769Z,9.25
2022-08-28T19:36:38.804Z,8.75
2022-08-28T19:39:11.723Z,9.93
2022-08-28T19:41:43.704Z,8.80
2022-08-28T19:44:14.190Z,8.32
2022-08-28T19:46:44.763Z,9.90
2022-08-28T19:49:15.121Z,7.97
2022-08-28T19:51:45.390Z,8.63
2022-08-28T19:54:18.297Z,10.10
2022-08-28T19:56:48.472Z,11.23
2022-08-28T19:59:18.732Z,8.43
2022-08-28T20:01:49.027Z,9.45
2022-08-28T20:04:19.644Z,9.10
2022-08-28T20:06:50.104Z,8.23
2022-08-28T20:09:23.036Z,7.72
2022-08-28T20:11:53.248Z,9.32
2022-08-28T20:14:24.545Z,7.55
2022-08-28T20:16:55.467Z,10.65
2022-08-28T20:19:25.760Z,9.27
2022-08-28T20:21:55.938Z,7.80
2022-08-28T20:24:29.216Z,11.70
2022-08-28T20:26:59.687Z,13.50
2022-08-28T20:29:30.215Z,8.13
2022-08-28T20:32:00.866Z,12.18
2022-08-28T20:34:32.076Z,9.55
2022-08-28T20:37:02.464Z,12.85
2022-08-28T20:39:37.171Z,10.45
2022-08-28T20:42:07.721Z,6.47
2022-08-28T20:44:38.294Z,7.90
2022-08-28T20:47:09.635Z,8.45
2022-08-28T20:49:39.747Z,13.25
2022-08-28T20:52:10.298Z,12.10
2022-08-28T20:54:44.880Z,9.43
2022-08-28T20:57:18.635Z,7.88
2022-08-28T20:59:50.263Z,7.95
2022-08-28T21:02:23.461Z,12.40
2022-08-28T21:04:55.257Z,7.28
2022-08-28T21:07:28.058Z,8.93
2022-08-28T21:10:07.157Z,14.93
2022-08-28T21:12:38.921Z,7.88
2022-08-28T21:15:12.593Z,10.05
2022-08-28T21:17:43.077Z,7.95
2022-08-28T21:20:17.498Z,8.18
2022-08-28T21:22:48.496Z,10.60
2022-08-28T21:25:25.885Z,8.10
2022-08-28T21:27:56.353Z,16.27
2022-08-28T21:30:29.680Z,8.27
2022-08-28T21:33:00.136Z,11.07
2022-08-28T21:35:30.442Z,8.10
2022-08-28T21:38:00.679Z,11.48
2022-08-28T21:40:35.341Z,9.18
2022-08-28T21:43:05.795Z,11.77
2022-08-28T21:45:36.604Z,9.65
2022-08-28T21:50:37.213Z,9.23
2022-08-28T21:53:07.450Z,12.23
2022-08-28T21:55:40.278Z,8.02
2022-08-28T21:58:11.967Z,10.63
2022-08-28T22:00:42.198Z,6.57
2022-08-28T22:03:12.375Z,9.05
2022-08-28T22:05:45.735Z,8.55
2022-08-28T22:08:17.399Z,7.30
2022-08-28T22:10:50.274Z,9.52
2022-08-28T22:13:21.023Z,9.82
2022-08-28T22:15:51.226Z,7.80
2022-08-28T22:18:21.719Z,8.95
2022-08-28T22:21:14.660Z,9.68
2022-08-28T22:23:45.113Z,10.20
2022-08-28T22:26:21.456Z,8.13
2022-08-28T22:28:51.758Z,11.32
2022-08-28T22:31:22.041Z,7.78
2022-08-28T22:33:52.653Z,7.05
2022-08-28T22:36:24.377Z,8.80
2022-08-28T22:38:59.765Z,11.50
2022-08-28T22:41:33.109Z,10.45
2022-08-28T22:44:03.678Z,8.23
2022-08-28T22:46:33.879Z,10.23
2022-08-28T22:49:04.056Z,9.75
2022-08-28T22:51:37.336Z,9.57
2022-08-28T22:54:08.760Z,8.60
2022-08-28T22:56:42.256Z,13.27
2022-08-28T22:59:12.751Z,10.35
2022-08-28T23:01:44.587Z,11.75
2022-08-28T23:04:16.125Z,7.25
2022-08-28T23:06:46.452Z,11.77
2022-08-28T23:09:16.679Z,10.77
2022-08-28T23:11:50.077Z,11.43
2022-08-28T23:14:20.873Z,9.02
2022-08-28T23:19:21.618Z,14.23
2022-08-28T23:21:52.480Z,7.70
2022-08-28T23:24:22.917Z,9.07
2022-08-28T23:26:55.784Z,9.95
2022-08-28T23:29:26.211Z,7.88
2022-08-28T23:31:56.423Z,10.00
2022-08-28T23:34:28.431Z,8.77
2022-08-28T23:36:58.714Z,10.88
2022-08-28T23:39:29.148Z,5.65
2022-08-28T23:42:03.210Z,10.68
2022-08-28T23:44:33.688Z,10.15
2022-08-28T23:47:04.140Z,10.32
2022-08-28T23:49:35.538Z,9.23
2022-08-28T23:52:14.360Z,11.65
2022-08-28T23:54:44.597Z,8.90
2022-08-28T23:57:18.077Z,12.63
2022-08-28T23:59:48.381Z,10.52
